Time;durP1;ratioP1;P1;durP2;ratioP2;P2;SDS_P1;SDS_P2;PMS_P1;PMS_P2;Temp;Humidity;BMP_temperature;BMP_pressure;BME280_temperature;BME280_humidity;BME280_pressure;Samples;Min_cycle;Max_cycle;Signal;HPM_P1;HPM_P2
2023/06/17 00:00:27;;;;;;;2.97;1.80;;;17.70;78.10;;;;;;5060199;28;20031;-83
2023/06/17 00:02:52;;;;;;;2.40;1.73;;;17.70;78.30;;;;;;5062849;28;20104;-84
2023/06/17 00:05:18;;;;;;;3.63;1.90;;;17.70;78.40;;;;;;5077152;28;20036;-82
2023/06/17 00:07:44;;;;;;;2.70;2.10;;;17.60;78.50;;;;;;5066508;28;20119;-86
2023/06/17 00:10:10;;;;;;;2.78;1.70;;;17.60;78.70;;;;;;5076376;28;20465;-84
2023/06/17 00:12:37;;;;;;;2.40;1.88;;;17.50;78.90;;;;;;5065379;28;20008;-84
2023/06/17 00:15:06;;;;;;;5.35;2.00;;;17.40;79.10;;;;;;5063141;28;20509;-84
2023/06/17 00:17:32;;;;;;;3.00;1.95;;;17.40;79.50;;;;;;5065303;28;20032;-83
2023/06/17 00:20:13;;;;;;;2.88;2.22;;;17.30;79.70;;;;;;5075763;28;20028;-83
2023/06/17 00:22:39;;;;;;;4.20;2.70;;;17.30;80.00;;;;;;5060270;28;20816;-83
2023/06/17 00:25:08;;;;;;;2.80;1.65;;;17.20;80.00;;;;;;5073627;28;20861;-83
2023/06/17 00:27:34;;;;;;;3.00;2.05;;;17.30;80.20;;;;;;5076177;28;20035;-84
2023/06/17 00:30:00;;;;;;;3.28;2.10;;;17.20;80.30;;;;;;5074095;28;20024;-83
2023/06/17 00:32:30;;;;;;;3.33;2.03;;;17.20;80.30;;;;;;5059419;28;20389;-83
2023/06/17 00:34:56;;;;;;;3.33;2.20;;;17.20;80.60;;;;;;5075040;28;20397;-84
2023/06/17 00:37:22;;;;;;;3.70;2.30;;;17.20;80.70;;;;;;5061723;28;20032;-83
2023/06/17 00:39:47;;;;;;;4.40;2.38;;;17.10;80.90;;;;;;5066994;28;20040;-83
2023/06/17 00:42:13;;;;;;;3.28;2.15;;;17.10;81.20;;;;;;5067709;28;20028;-85
2023/06/17 00:44:39;;;;;;;3.58;2.17;;;17.00;81.50;;;;;;5070173;28;20058;-84
2023/06/17 00:47:06;;;;;;;4.40;2.20;;;17.00;81.90;;;;;;5061553;28;20331;-84
2023/06/17 00:49:41;;;;;;;3.55;2.33;;;16.90;82.10;;;;;;5077883;28;20128;-84
2023/06/17 00:52:08;;;;;;;3.08;2.33;;;16.90;82.30;;;;;;5058727;28;20050;-84
2023/06/17 00:54:40;;;;;;;3.20;2.30;;;16.90;82.30;;;;;;5062848;28;20025;-83
2023/06/17 00:57:09;;;;;;;3.13;2.17;;;16.90;82.40;;;;;;5060582;28;20024;-85
2023/06/17 00:59:37;;;;;;;4.32;2.47;;;16.80;82.50;;;;;;5075494;28;20094;-83
2023/06/17 01:02:04;;;;;;;4.95;2.67;;;16.80;82.70;;;;;;5076292;28;20028;-83
2023/06/17 01:04:31;;;;;;;3.33;2.40;;;16.80;82.80;;;;;;5064790;28;20043;-83
2023/06/17 01:07:12;;;;;;;2.97;2.00;;;16.70;82.90;;;;;;5075257;28;20602;-84
2023/06/17 01:09:45;;;;;;;3.08;2.00;;;16.70;83.00;;;;;;5076338;28;20033;-84
2023/06/17 01:12:14;;;;;;;3.17;1.70;;;16.60;83.00;;;;;;5074202;28;20107;-83
2023/06/17 01:14:41;;;;;;;3.38;2.33;;;16.60;83.10;;;;;;5064840;28;20031;-83
2023/06/17 01:17:10;;;;;;;2.78;2.08;;;16.50;83.40;;;;;;5064242;28;22339;-83
2023/06/17 01:19:38;;;;;;;4.13;2.67;;;16.50;83.70;;;;;;5058739;28;20371;-83
2023/06/17 01:22:10;;;;;;;3.40;2.03;;;16.50;84.00;;;;;;5076026;28;20055;-84
2023/06/17 01:24:37;;;;;;;3.70;2.47;;;16.50;84.20;;;;;;5076443;28;20800;-82
2023/06/17 01:27:03;;;;;;;3.78;2.40;;;16.40;84.20;;;;;;5074838;28;20393;-84
2023/06/17 01:29:32;;;;;;;3.00;2.20;;;16.30;84.50;;;;;;5063571;28;20086;-82
2023/06/17 01:31:59;;;;;;;3.33;2.33;;;16.20;84.80;;;;;;5075362;28;20065;-85
2023/06/17 01:34:36;;;;;;;3.67;2.63;;;16.20;85.10;;;;;;5073573;28;20029;-84
2023/06/17 01:37:05;;;;;;;3.97;2.55;;;16.20;85.40;;;;;;5060291;28;20121;-84
2023/06/17 01:39:34;;;;;;;3.38;2.22;;;16.20;85.50;;;;;;5060765;28;20032;-84
2023/06/17 01:42:01;;;;;;;3.40;2.35;;;16.10;85.40;;;;;;5062196;28;20024;-83
2023/06/17 01:44:27;;;;;;;3.50;2.40;;;16.10;85.60;;;;;;5075086;28;20022;-83
2023/06/17 01:46:53;;;;;;;3.45;2.40;;;16.10;85.70;;;;;;5067477;28;20089;-85
2023/06/17 01:49:18;;;;;;;3.05;2.30;;;16.00;85.80;;;;;;5075110;28;20039;-85
2023/06/17 01:51:44;;;;;;;3.80;2.45;;;16.10;85.90;;;;;;5075689;28;20024;-84
2023/06/17 01:54:10;;;;;;;3.88;2.78;;;16.00;85.90;;;;;;5075332;28;20035;-83
2023/06/17 01:56:36;;;;;;;4.32;2.35;;;16.00;86.10;;;;;;5073136;28;20028;-84
2023/06/17 01:59:02;;;;;;;3.63;2.60;;;15.90;86.30;;;;;;5060562;28;20024;-84
2023/06/17 02:01:27;;;;;;;3.53;2.60;;;15.90;86.60;;;;;;5062791;28;20020;-84
2023/06/17 02:03:53;;;;;;;4.13;3.00;;;15.80;86.80;;;;;;5063692;28;20042;-83
2023/06/17 02:06:18;;;;;;;3.65;2.83;;;15.80;87.00;;;;;;5075961;28;20140;-85
2023/06/17 02:08:45;;;;;;;4.50;3.20;;;15.80;87.20;;;;;;5057575;28;20043;-84
2023/06/17 02:11:11;;;;;;;4.45;3.13;;;15.70;87.50;;;;;;5063337;28;21052;-83
2023/06/17 02:13:36;;;;;;;4.88;3.13;;;15.70;87.80;;;;;;5058662;28;20020;-84
2023/06/17 02:16:02;;;;;;;4.53;2.97;;;15.70;88.00;;;;;;5057286;28;20039;-85
2023/06/17 02:18:27;;;;;;;5.53;3.17;;;15.60;88.00;;;;;;5057344;28;20024;-84
2023/06/17 02:20:53;;;;;;;4.28;3.00;;;15.60;88.10;;;;;;5073254;28;20034;-84
2023/06/17 02:23:19;;;;;;;4.82;3.70;;;15.60;88.20;;;;;;5060307;28;20097;-82
2023/06/17 02:25:45;;;;;;;3.97;3.28;;;15.50;88.40;;;;;;5073745;28;20024;-83
2023/06/17 02:28:10;;;;;;;4.38;3.20;;;15.50;88.40;;;;;;5056948;28;20043;-81
2023/06/17 02:30:36;;;;;;;5.78;3.45;;;15.40;88.50;;;;;;5063749;28;20027;-83
2023/06/17 02:33:01;;;;;;;4.88;3.90;;;15.40;88.70;;;;;;5057309;28;20036;-82
2023/06/17 02:35:27;;;;;;;5.00;3.58;;;15.40;88.90;;;;;;5074037;28;20119;-83
2023/06/17 02:37:54;;;;;;;6.05;4.28;;;15.40;89.10;;;;;;5074557;28;20036;-84
2023/06/17 02:40:20;;;;;;;5.88;4.20;;;15.30;89.20;;;;;;5064787;28;20031;-83
2023/06/17 02:42:45;;;;;;;5.10;3.75;;;15.30;89.30;;;;;;5062194;28;20028;-83
2023/06/17 02:45:12;;;;;;;6.13;4.07;;;15.20;89.40;;;;;;5076234;28;20051;-85
2023/06/17 02:47:38;;;;;;;5.18;3.95;;;15.20;89.60;;;;;;5075580;28;20020;-85
2023/06/17 02:50:06;;;;;;;5.40;4.05;;;15.20;89.80;;;;;;5075157;28;20115;-84
2023/06/17 02:52:34;;;;;;;6.10;4.28;;;15.20;90.00;;;;;;5060552;28;20032;-84
2023/06/17 02:55:00;;;;;;;6.25;4.20;;;15.10;90.00;;;;;;5064987;28;20021;-85
2023/06/17 02:57:25;;;;;;;6.00;4.65;;;15.00;90.00;;;;;;5073126;28;20102;-83
2023/06/17 02:59:51;;;;;;;5.15;4.10;;;15.00;90.20;;;;;;5072836;28;20024;-84
2023/06/17 03:02:17;;;;;;;5.50;4.28;;;15.00;90.30;;;;;;5073777;28;20062;-84
2023/06/17 03:04:43;;;;;;;5.35;4.25;;;15.00;90.30;;;;;;5074126;28;20024;-84
2023/06/17 03:07:11;;;;;;;5.20;4.10;;;14.90;90.40;;;;;;5074070;28;20047;-83
2023/06/17 03:09:37;;;;;;;4.57;3.90;;;14.90;90.40;;;;;;5075423;28;20032;-85
2023/06/17 03:12:03;;;;;;;5.38;4.28;;;14.90;90.50;;;;;;5058163;28;20024;-85
2023/06/17 03:14:29;;;;;;;7.05;4.40;;;14.90;90.60;;;;;;5056399;28;20530;-84
2023/06/17 03:16:59;;;;;;;6.95;5.03;;;14.80;90.80;;;;;;5057725;28;20103;-85
2023/06/17 03:19:25;;;;;;;5.32;4.15;;;14.80;90.80;;;;;;5057464;28;20832;-83
2023/06/17 03:21:50;;;;;;;5.45;4.10;;;14.80;90.90;;;;;;5059535;28;20035;-85
2023/06/17 03:24:16;;;;;;;7.00;4.45;;;14.70;90.90;;;;;;5075691;28;20040;-84
2023/06/17 03:26:42;;;;;;;4.88;3.80;;;14.70;90.90;;;;;;5073076;28;20039;-84
2023/06/17 03:29:07;;;;;;;4.72;3.67;;;14.70;91.00;;;;;;5061947;28;20037;-84
2023/06/17 03:31:33;;;;;;;5.25;4.07;;;14.70;91.00;;;;;;5057295;28;20027;-84
2023/06/17 03:33:59;;;;;;;5.95;3.88;;;14.80;91.00;;;;;;5073081;28;20020;-83
2023/06/17 03:36:30;;;;;;;6.15;4.07;;;14.70;91.00;;;;;;5060666;28;20032;-84
2023/06/17 03:38:58;;;;;;;6.45;4.22;;;14.70;91.10;;;;;;5065433;28;20531;-83
2023/06/17 03:41:25;;;;;;;5.03;4.05;;;14.70;91.20;;;;;;5076259;28;20112;-84
2023/06/17 03:43:51;;;;;;;6.70;4.50;;;14.70;91.20;;;;;;5064647;28;20025;-82
2023/06/17 03:46:17;;;;;;;6.07;4.70;;;14.70;91.30;;;;;;5076224;28;20085;-84
2023/06/17 03:48:42;;;;;;;5.68;4.10;;;14.70;91.50;;;;;;5076911;28;20044;-82
2023/06/17 03:51:08;;;;;;;5.82;4.43;;;14.70;91.50;;;;;;5077975;28;20036;-83
2023/06/17 03:53:33;;;;;;;6.43;4.55;;;14.70;91.60;;;;;;5066982;28;20043;-83
2023/06/17 03:55:59;;;;;;;6.03;4.05;;;14.70;91.60;;;;;;5075519;28;20030;-83
2023/06/17 03:58:24;;;;;;;5.28;3.97;;;14.70;91.70;;;;;;5075608;28;20111;-81
2023/06/17 04:00:51;;;;;;;6.72;4.20;;;14.60;91.70;;;;;;5063586;28;20020;-82
2023/06/17 04:03:18;;;;;;;7.03;4.20;;;14.70;91.80;;;;;;5066387;28;20072;-82
2023/06/17 04:05:44;;;;;;;5.72;4.53;;;14.70;91.90;;;;;;5077450;28;20032;-84
2023/06/17 04:08:10;;;;;;;5.68;4.05;;;14.70;92.00;;;;;;5078044;28;20051;-83
2023/06/17 04:10:36;;;;;;;5.72;4.60;;;14.70;92.10;;;;;;5074846;28;20023;-82
2023/06/17 04:13:02;;;;;;;5.97;4.20;;;14.70;92.20;;;;;;5074790;28;20032;-83
2023/06/17 04:15:27;;;;;;;6.00;4.40;;;14.70;92.30;;;;;;5075588;28;20028;-83
2023/06/17 04:17:53;;;;;;;5.35;3.90;;;14.70;92.30;;;;;;5065067;28;20028;-83
2023/06/17 04:20:19;;;;;;;4.97;3.67;;;14.70;92.30;;;;;;5060539;28;20027;-82
2023/06/17 04:22:45;;;;;;;5.32;4.05;;;14.70;92.30;;;;;;5077418;28;20040;-83
2023/06/17 04:25:12;;;;;;;5.47;4.20;;;14.70;92.40;;;;;;5064193;28;20032;-83
2023/06/17 04:27:38;;;;;;;6.10;4.07;;;14.70;92.40;;;;;;5067831;28;20024;-82
2023/06/17 04:30:08;;;;;;;6.57;4.50;;;14.80;92.40;;;;;;5075214;28;20052;-83
2023/06/17 04:32:35;;;;;;;5.30;3.92;;;14.90;92.50;;;;;;5075207;28;20107;-83
2023/06/17 04:35:03;;;;;;;5.60;4.10;;;14.90;92.40;;;;;;5066088;28;20074;-83
2023/06/17 04:37:29;;;;;;;4.97;4.15;;;14.90;92.40;;;;;;5075253;28;20107;-83
2023/06/17 04:39:56;;;;;;;5.57;4.43;;;15.00;92.40;;;;;;5076551;28;20028;-84
2023/06/17 04:42:22;;;;;;;7.35;5.15;;;15.10;92.50;;;;;;5065448;28;20016;-84
2023/06/17 04:44:48;;;;;;;7.22;4.60;;;15.20;92.50;;;;;;5079032;28;20020;-82
2023/06/17 04:47:16;;;;;;;6.80;4.97;;;15.20;92.50;;;;;;5078157;28;20067;-84
2023/06/17 04:49:44;;;;;;;5.50;4.53;;;15.20;92.50;;;;;;5066632;28;20047;-84
2023/06/17 04:52:13;;;;;;;6.63;4.55;;;15.30;92.50;;;;;;5066408;28;20105;-83
2023/06/17 04:54:39;;;;;;;5.10;3.97;;;15.40;92.50;;;;;;5060144;28;20025;-84
2023/06/17 04:57:05;;;;;;;7.75;4.05;;;15.40;92.50;;;;;;5064474;28;20071;-82
2023/06/17 04:59:31;;;;;;;6.78;4.57;;;15.40;92.50;;;;;;5076395;28;20672;-84
2023/06/17 05:01:57;;;;;;;6.20;4.30;;;15.50;92.50;;;;;;5074704;28;20491;-82
2023/06/17 05:04:22;;;;;;;6.65;4.70;;;15.50;92.50;;;;;;5075717;28;20036;-84
2023/06/17 05:06:48;;;;;;;5.55;4.35;;;15.60;92.50;;;;;;5078177;28;20035;-85
2023/06/17 05:09:14;;;;;;;6.00;4.40;;;15.70;92.40;;;;;;5074161;28;20068;-82
2023/06/17 05:11:40;;;;;;;5.50;4.20;;;15.70;92.30;;;;;;5076052;28;20429;-83
2023/06/17 05:14:06;;;;;;;5.55;4.53;;;15.80;92.30;;;;;;5074530;28;20113;-84
2023/06/17 05:16:32;;;;;;;7.68;5.00;;;15.90;92.20;;;;;;5065875;28;20036;-84
2023/06/17 05:18:57;;;;;;;5.57;4.70;;;16.00;92.10;;;;;;5076059;28;20028;-84
2023/06/17 05:21:23;;;;;;;7.38;4.88;;;16.10;92.10;;;;;;5066001;28;20086;-84
2023/06/17 05:23:50;;;;;;;5.35;4.22;;;16.10;92.00;;;;;;5073824;28;20055;-84
2023/06/17 05:26:16;;;;;;;5.55;4.38;;;16.20;92.00;;;;;;5074835;28;20024;-83
2023/06/17 05:28:41;;;;;;;6.53;4.70;;;16.30;92.00;;;;;;5075200;28;20497;-83
2023/06/17 05:31:08;;;;;;;6.45;4.40;;;16.30;92.00;;;;;;5060277;28;22280;-83
2023/06/17 05:33:34;;;;;;;5.72;4.45;;;16.40;92.00;;;;;;5075843;28;20031;-84
2023/06/17 05:36:00;;;;;;;5.85;4.40;;;16.40;92.00;;;;;;5066353;28;20020;-85
2023/06/17 05:38:26;;;;;;;6.78;4.55;;;16.50;92.00;;;;;;5072798;28;20025;-84
2023/06/17 05:40:52;;;;;;;6.68;4.53;;;16.60;91.90;;;;;;5073399;28;20066;-83
2023/06/17 05:43:17;;;;;;;5.78;4.95;;;16.70;91.90;;;;;;5074421;28;20113;-84
2023/06/17 05:45:43;;;;;;;6.82;5.10;;;16.70;92.00;;;;;;5058448;28;20515;-83
2023/06/17 05:48:08;;;;;;;6.28;4.82;;;16.70;92.00;;;;;;5073704;28;20036;-83
2023/06/17 05:50:34;;;;;;;6.68;4.75;;;16.80;92.00;;;;;;5074337;28;20058;-83
2023/06/17 05:52:59;;;;;;;7.55;5.25;;;16.90;92.00;;;;;;5073374;28;20028;-83
2023/06/17 05:55:25;;;;;;;6.30;4.97;;;17.00;92.00;;;;;;5062737;28;20080;-82
2023/06/17 05:57:52;;;;;;;7.40;4.93;;;17.00;92.00;;;;;;5062372;28;20063;-83
2023/06/17 06:00:18;;;;;;;6.68;5.43;;;17.10;92.00;;;;;;5073638;28;20024;-83
2023/06/17 06:02:43;;;;;;;7.63;5.65;;;17.20;92.10;;;;;;5074860;28;20036;-82
2023/06/17 06:05:09;;;;;;;6.65;5.10;;;17.20;92.10;;;;;;5059925;28;20040;-83
2023/06/17 06:07:35;;;;;;;6.55;4.93;;;17.30;92.10;;;;;;5075178;28;20027;-82
2023/06/17 06:10:03;;;;;;;5.10;4.13;;;17.40;92.20;;;;;;5073276;28;20077;-85
2023/06/17 06:12:29;;;;;;;6.53;4.88;;;17.40;92.10;;;;;;5074073;28;20055;-85
2023/06/17 06:14:55;;;;;;;6.57;4.60;;;17.50;92.10;;;;;;5073251;28;20016;-85
2023/06/17 06:17:21;;;;;;;5.65;4.55;;;17.60;92.10;;;;;;5074079;28;20043;-82
2023/06/17 06:19:46;;;;;;;7.28;4.63;;;17.60;92.10;;;;;;5058947;28;20482;-85
2023/06/17 06:22:12;;;;;;;6.07;4.68;;;17.70;92.10;;;;;;5074032;28;20482;-84
2023/06/17 06:24:38;;;;;;;5.38;3.63;;;17.70;92.10;;;;;;5062339;28;20087;-85
2023/06/17 06:27:04;;;;;;;5.30;3.78;;;17.80;92.00;;;;;;5061124;28;20024;-82
2023/06/17 06:29:30;;;;;;;4.65;3.55;;;17.80;92.00;;;;;;5058111;28;20036;-85
2023/06/17 06:31:55;;;;;;;5.35;3.45;;;17.90;91.80;;;;;;5073962;28;20028;-85
2023/06/17 06:34:21;;;;;;;4.60;3.50;;;18.00;91.70;;;;;;5074881;28;20016;-83
2023/06/17 06:36:46;;;;;;;4.57;3.25;;;18.10;91.60;;;;;;5073082;28;20039;-84
2023/06/17 06:39:12;;;;;;;3.55;2.42;;;18.10;91.40;;;;;;5073792;28;20077;-84
2023/06/17 06:41:38;;;;;;;3.85;2.90;;;18.30;91.20;;;;;;5065806;28;20020;-86
2023/06/17 06:44:03;;;;;;;3.47;2.58;;;18.20;91.00;;;;;;5073596;28;20070;-86
2023/06/17 06:46:31;;;;;;;3.75;2.65;;;18.30;90.90;;;;;;5074350;28;20024;-83
2023/06/17 06:48:57;;;;;;;4.05;2.75;;;18.30;90.80;;;;;;5074847;28;20036;-84
2023/06/17 06:51:23;;;;;;;4.10;2.88;;;18.40;90.70;;;;;;5073657;28;20480;-81
2023/06/17 06:53:49;;;;;;;3.03;2.53;;;18.50;90.50;;;;;;5062914;28;20036;-81
2023/06/17 06:56:14;;;;;;;4.53;2.63;;;18.50;90.30;;;;;;5073322;28;20087;-82
2023/06/17 06:58:40;;;;;;;3.00;2.42;;;18.60;90.00;;;;;;5073061;28;20032;-82
2023/06/17 07:01:05;;;;;;;3.80;2.75;;;18.70;89.40;;;;;;5073325;28;20024;-82
2023/06/17 07:03:32;;;;;;;3.55;2.20;;;18.70;89.00;;;;;;5057041;28;20039;-83
2023/06/17 07:05:57;;;;;;;5.15;2.20;;;18.70;88.60;;;;;;5071200;28;20050;-82
2023/06/17 07:08:24;;;;;;;3.22;2.30;;;18.70;88.30;;;;;;5071554;28;20032;-83
2023/06/17 07:10:50;;;;;;;3.88;2.03;;;18.80;88.00;;;;;;5062442;28;20475;-82
2023/06/17 07:13:17;;;;;;;4.75;2.40;;;18.90;87.90;;;;;;5076599;28;20024;-84
2023/06/17 07:15:44;;;;;;;4.65;2.50;;;18.90;87.60;;;;;;5059961;28;20035;-84
2023/06/17 07:18:10;;;;;;;3.50;2.60;;;19.00;87.30;;;;;;5065855;28;20111;-82
2023/06/17 07:20:35;;;;;;;3.33;2.13;;;19.10;87.20;;;;;;5077941;28;20032;-84
2023/06/17 07:23:01;;;;;;;3.03;2.35;;;19.10;87.00;;;;;;5075210;28;20036;-83
2023/06/17 07:25:26;;;;;;;2.88;2.20;;;19.20;86.70;;;;;;5076703;28;20028;-83
2023/06/17 07:27:56;;;;;;;3.30;2.40;;;19.30;86.20;;;;;;5073865;28;20032;-83
2023/06/17 07:30:22;;;;;;;3.60;2.38;;;19.40;85.80;;;;;;5060761;28;20035;-82
2023/06/17 07:32:48;;;;;;;2.67;2.08;;;19.40;85.50;;;;;;5075324;28;20031;-82
2023/06/17 07:35:13;;;;;;;3.22;2.42;;;19.40;85.30;;;;;;5076313;28;20159;-83
2023/06/17 07:37:39;;;;;;;2.97;2.50;;;19.50;85.20;;;;;;5063039;28;20024;-82
2023/06/17 07:40:06;;;;;;;3.28;2.13;;;19.50;85.00;;;;;;5063671;28;20448;-82
2023/06/17 07:42:32;;;;;;;3.22;2.30;;;19.60;84.80;;;;;;5075278;28;20071;-83
2023/06/17 07:44:57;;;;;;;3.28;2.40;;;19.70;84.50;;;;;;5073782;28;20149;-83
2023/06/17 07:47:23;;;;;;;4.45;2.20;;;19.70;84.90;;;;;;5074594;28;20570;-83
2023/06/17 07:49:49;;;;;;;3.50;2.55;;;19.70;84.00;;;;;;5073165;28;20123;-82
2023/06/17 07:52:15;;;;;;;3.10;2.30;;;19.90;83.90;;;;;;5063180;28;20584;-83
2023/06/17 07:54:41;;;;;;;3.00;2.40;;;20.00;83.40;;;;;;5073039;28;20035;-80
2023/06/17 07:57:06;;;;;;;3.90;2.50;;;20.10;83.30;;;;;;5072445;28;20024;-78
2023/06/17 07:59:32;;;;;;;4.40;2.20;;;20.10;83.00;;;;;;5074339;28;20045;-83
2023/06/17 08:01:58;;;;;;;3.00;2.28;;;20.20;82.70;;;;;;5074004;28;20016;-82
2023/06/17 08:04:24;;;;;;;4.00;2.25;;;20.30;82.40;;;;;;5059453;28;20403;-81
2023/06/17 08:06:50;;;;;;;5.05;2.30;;;20.40;82.20;;;;;;5072342;28;20031;-84
2023/06/17 08:09:15;;;;;;;4.03;2.70;;;20.50;81.70;;;;;;5061032;28;20036;-82
2023/06/17 08:11:41;;;;;;;4.45;2.50;;;20.60;81.40;;;;;;5055518;28;20798;-82
2023/06/17 08:14:06;;;;;;;3.15;2.53;;;20.70;80.60;;;;;;5057359;28;20031;-82
2023/06/17 08:16:32;;;;;;;4.63;2.55;;;20.80;79.80;;;;;;5072242;28;20039;-83
2023/06/17 08:18:58;;;;;;;3.03;2.30;;;20.90;79.40;;;;;;5072640;28;20028;-82
2023/06/17 08:21:23;;;;;;;3.67;2.58;;;21.00;79.00;;;;;;5072518;28;20024;-82
2023/06/17 08:23:52;;;;;;;3.42;2.50;;;21.10;78.40;;;;;;5075226;28;20096;-82
2023/06/17 08:26:17;;;;;;;3.75;2.42;;;21.20;77.90;;;;;;5061480;28;20058;-83
2023/06/17 08:28:43;;;;;;;4.75;2.40;;;21.30;77.70;;;;;;5075862;28;20823;-82
2023/06/17 08:31:08;;;;;;;3.65;2.58;;;21.40;77.20;;;;;;5075791;28;20543;-82
2023/06/17 08:33:34;;;;;;;3.15;2.40;;;21.40;76.40;;;;;;5076754;28;20035;-83
2023/06/17 08:36:00;;;;;;;4.93;2.20;;;21.50;76.00;;;;;;5065030;28;20051;-82
2023/06/17 08:38:25;;;;;;;3.72;2.40;;;21.60;75.50;;;;;;5060861;28;20454;-82
2023/06/17 08:40:52;;;;;;;4.20;2.70;;;21.70;75.50;;;;;;5073217;28;20024;-82
2023/06/17 08:43:19;;;;;;;3.67;2.17;;;21.70;74.50;;;;;;5063865;28;20490;-83
2023/06/17 08:45:48;;;;;;;3.03;2.20;;;21.80;74.30;;;;;;5076017;28;20024;-82
2023/06/17 08:48:15;;;;;;;3.63;2.30;;;21.80;74.20;;;;;;5076290;28;20777;-82
2023/06/17 08:50:41;;;;;;;3.00;2.25;;;22.00;74.10;;;;;;5057845;28;20050;-83
2023/06/17 08:53:08;;;;;;;3.97;2.28;;;22.20;73.70;;;;;;5058548;28;20017;-81
2023/06/17 08:55:34;;;;;;;4.47;2.50;;;22.40;73.40;;;;;;5064657;28;20159;-82
2023/06/17 08:58:01;;;;;;;3.58;2.63;;;22.40;73.10;;;;;;5072563;28;20323;-82
2023/06/17 09:00:26;;;;;;;3.17;2.70;;;22.50;72.80;;;;;;5073629;28;20027;-84
2023/06/17 09:02:54;;;;;;;4.43;2.95;;;22.50;71.20;;;;;;5074872;28;20040;-84
2023/06/17 09:05:20;;;;;;;3.42;2.33;;;22.60;70.90;;;;;;5058335;28;21268;-83
2023/06/17 09:07:45;;;;;;;2.72;2.15;;;22.70;71.00;;;;;;5059220;28;20031;-83
2023/06/17 09:10:15;;;;;;;3.60;2.47;;;22.80;71.00;;;;;;5073989;28;20926;-84
2023/06/17 09:12:41;;;;;;;3.65;2.60;;;22.90;70.40;;;;;;5073437;28;20433;-85
2023/06/17 09:15:13;;;;;;;3.40;2.50;;;23.00;69.80;;;;;;5063117;28;20030;-85
2023/06/17 09:17:41;;;;;;;5.05;2.20;;;23.10;69.80;;;;;;5059737;28;20032;-84
2023/06/17 09:20:12;;;;;;;3.55;2.20;;;23.20;69.80;;;;;;5073287;28;20338;-86
2023/06/17 09:22:40;;;;;;;3.28;2.25;;;23.40;69.50;;;;;;5073396;28;20051;-85
2023/06/17 09:25:11;;;;;;;4.28;2.50;;;23.60;69.10;;;;;;5062361;28;21199;-85
2023/06/17 09:27:44;;;;;;;6.20;2.90;;;23.70;68.40;;;;;;5074825;28;20029;-85
2023/06/17 09:30:10;;;;;;;4.68;3.03;;;23.90;68.10;;;;;;5074829;28;20590;-85
2023/06/17 09:32:40;;;;;;;3.85;2.30;;;24.10;67.90;;;;;;5073912;28;20024;-87
2023/06/17 09:35:11;;;;;;;4.38;2.40;;;24.80;67.60;;;;;;5073755;28;20037;-85
2023/06/17 09:37:37;;;;;;;2.53;2.00;;;26.00;66.90;;;;;;5072999;28;20766;-87
2023/06/17 09:40:06;;;;;;;3.33;2.20;;;27.10;65.70;;;;;;5060980;28;20035;-86
2023/06/17 09:42:31;;;;;;;3.28;2.17;;;28.00;64.70;;;;;;5074321;28;20024;-86
2023/06/17 09:45:03;;;;;;;3.17;2.10;;;28.80;63.90;;;;;;5072831;28;20024;-86
2023/06/17 09:47:37;;;;;;;3.47;2.25;;;29.50;63.60;;;;;;5071843;28;20024;-85
2023/06/17 09:50:08;;;;;;;2.95;1.90;;;30.10;62.20;;;;;;5071880;28;20039;-83
2023/06/17 09:52:36;;;;;;;3.40;2.13;;;30.50;62.10;;;;;;5072910;28;20542;-82
2023/06/17 09:55:05;;;;;;;2.63;2.05;;;30.80;61.30;;;;;;5074142;28;20020;-80
2023/06/17 09:57:32;;;;;;;2.47;1.73;;;31.10;60.80;;;;;;5075136;28;20550;-82
2023/06/17 10:00:00;;;;;;;3.45;1.88;;;31.20;60.30;;;;;;5073004;28;20024;-81
2023/06/17 10:02:27;;;;;;;5.22;2.20;;;31.50;59.80;;;;;;5062087;28;20028;-82
2023/06/17 10:04:53;;;;;;;2.97;2.03;;;31.70;59.70;;;;;;5062000;28;20433;-81
2023/06/17 10:07:22;;;;;;;2.95;2.13;;;31.90;59.00;;;;;;5064522;28;20036;-81
2023/06/17 10:09:48;;;;;;;3.25;1.77;;;32.20;58.80;;;;;;5059083;28;20074;-82
2023/06/17 10:12:15;;;;;;;2.55;1.90;;;32.40;58.60;;;;;;5074657;28;20032;-81
2023/06/17 10:14:42;;;;;;;3.47;1.95;;;32.60;58.30;;;;;;5065889;28;20453;-83
2023/06/17 10:17:09;;;;;;;2.40;1.90;;;32.60;57.50;;;;;;5074013;28;20028;-83
2023/06/17 10:19:37;;;;;;;4.43;1.92;;;32.80;57.50;;;;;;5073946;28;20024;-83
2023/06/17 10:22:08;;;;;;;2.40;1.83;;;33.10;57.00;;;;;;5074296;28;20039;-83
2023/06/17 10:24:34;;;;;;;2.33;1.70;;;33.40;56.80;;;;;;5059898;28;20032;-83
2023/06/17 10:27:05;;;;;;;2.67;1.90;;;33.70;56.60;;;;;;5072683;28;20028;-83
2023/06/17 10:29:32;;;;;;;1.75;1.48;;;33.90;56.20;;;;;;5073315;28;20032;-84
2023/06/17 10:32:24;;;;;;;3.55;1.92;;;34.00;55.90;;;;;;5072702;28;20458;-84
2023/06/17 10:35:04;;;;;;;2.13;1.45;;;34.20;55.50;;;;;;5062180;28;20043;-85
2023/06/17 10:37:31;;;;;;;1.55;1.30;;;34.40;55.50;;;;;;5074426;28;20074;-83
2023/06/17 10:40:18;;;;;;;3.15;1.77;;;34.40;55.00;;;;;;5076151;28;20023;-83
2023/06/17 10:43:03;;;;;;;2.10;1.50;;;34.50;54.60;;;;;;5072890;28;20081;-82
2023/06/17 10:45:29;;;;;;;2.20;1.90;;;34.60;54.30;;;;;;5048449;28;20036;-84
2023/06/17 10:48:30;;;;;;;2.22;1.88;;;34.50;54.00;;;;;;5073492;28;20460;-84
2023/06/17 10:51:03;;;;;;;3.30;2.10;;;34.40;53.20;;;;;;5055159;28;20085;-84
2023/06/17 10:53:35;;;;;;;2.75;1.90;;;34.20;53.10;;;;;;5073785;28;20524;-83
2023/06/17 10:56:02;;;;;;;3.42;2.05;;;34.40;53.80;;;;;;5071347;28;20028;-83
2023/06/17 10:58:31;;;;;;;3.03;2.00;;;34.60;53.60;;;;;;5073921;28;20024;-85
2023/06/17 11:01:08;;;;;;;3.22;1.85;;;34.70;52.70;;;;;;5073662;28;20069;-86
2023/06/17 11:03:34;;;;;;;3.70;2.20;;;35.00;52.40;;;;;;5058504;28;20032;-85
2023/06/17 11:06:01;;;;;;;1.95;1.75;;;35.20;52.50;;;;;;5060372;28;20013;-85
2023/06/17 11:08:29;;;;;;;3.30;1.90;;;35.50;52.20;;;;;;5058122;28;20051;-85
2023/06/17 11:11:14;;;;;;;2.35;1.70;;;35.50;51.80;;;;;;5069090;28;20028;-85
2023/06/17 11:13:41;;;;;;;2.17;1.75;;;35.80;51.50;;;;;;5056594;28;20039;-84
2023/06/17 11:16:08;;;;;;;2.40;1.63;;;36.20;51.40;;;;;;5061583;28;20107;-86
2023/06/17 11:18:38;;;;;;;2.38;1.77;;;36.50;50.80;;;;;;5073194;28;20123;-87
2023/06/17 11:21:05;;;;;;;1.90;1.70;;;36.70;50.80;;;;;;5072727;28;20050;-86
2023/06/17 11:23:31;;;;;;;3.63;1.77;;;36.70;50.80;;;;;;5071882;28;20093;-88
2023/06/17 11:25:57;;;;;;;2.95;1.85;;;36.70;50.40;;;;;;5072737;28;20112;-86
2023/06/17 11:28:23;;;;;;;2.58;1.80;;;36.50;49.60;;;;;;5056558;28;21010;-86
2023/06/17 11:30:49;;;;;;;2.33;1.58;;;36.70;49.70;;;;;;5053466;28;20082;-86
2023/06/17 11:33:19;;;;;;;2.78;1.80;;;36.90;49.10;;;;;;5061098;28;20787;-84
2023/06/17 11:35:47;;;;;;;2.47;1.60;;;36.80;49.20;;;;;;5063718;28;20060;-85
2023/06/17 11:38:12;;;;;;;2.40;1.83;;;37.00;49.10;;;;;;5071790;28;20039;-86
2023/06/17 11:40:41;;;;;;;3.28;1.83;;;37.20;49.10;;;;;;5061353;28;20028;-85
2023/06/17 11:43:07;;;;;;;3.53;1.92;;;37.00;48.50;;;;;;5055004;28;20043;-86
2023/06/17 11:45:34;;;;;;;2.63;1.83;;;36.60;47.80;;;;;;5062902;28;20143;-88
2023/06/17 11:48:00;;;;;;;2.92;2.00;;;36.40;48.20;;;;;;5055378;28;20024;-86
2023/06/17 11:50:32;;;;;;;2.20;1.77;;;36.30;48.40;;;;;;5054837;28;20031;-88
2023/06/17 11:52:57;;;;;;;2.60;1.80;;;36.60;48.70;;;;;;5053689;28;20020;-85
2023/06/17 11:55:34;;;;;;;3.53;2.08;;;36.90;48.80;;;;;;5074449;28;20029;-84
2023/06/17 11:58:02;;;;;;;3.08;1.80;;;37.20;48.90;;;;;;5076991;28;20028;-84
2023/06/17 12:00:35;;;;;;;1.88;1.60;;;37.30;48.60;;;;;;5065259;28;20547;-86
2023/06/17 12:03:02;;;;;;;2.65;1.70;;;37.50;48.30;;;;;;5073912;28;20079;-87
2023/06/17 12:05:28;;;;;;;2.65;1.63;;;37.40;48.20;;;;;;5074595;28;20031;-85
2023/06/17 12:07:59;;;;;;;1.98;1.75;;;37.50;48.40;;;;;;5060009;28;20023;-85
2023/06/17 12:10:26;;;;;;;2.65;1.63;;;37.80;48.40;;;;;;5061634;28;20170;-84
2023/06/17 12:12:54;;;;;;;2.30;1.80;;;37.90;48.50;;;;;;5075928;28;20108;-87
2023/06/17 12:15:26;;;;;;;2.55;1.83;;;38.00;48.30;;;;;;5075071;28;20161;-85
2023/06/17 12:17:52;;;;;;;2.03;1.75;;;38.00;48.00;;;;;;5056965;28;20029;-89
2023/06/17 12:20:19;;;;;;;2.35;1.63;;;38.00;48.00;;;;;;5075488;28;20545;-87
2023/06/17 12:22:47;;;;;;;2.05;1.50;;;37.90;48.80;;;;;;5075730;28;20068;-86
2023/06/17 12:25:13;;;;;;;2.08;1.67;;;37.80;48.30;;;;;;5063626;28;20043;-86
2023/06/17 12:27:40;;;;;;;3.05;1.70;;;37.80;48.30;;;;;;5067797;28;20475;-85
2023/06/17 12:30:07;;;;;;;2.72;1.60;;;37.90;48.20;;;;;;5074805;28;20028;-85
2023/06/17 12:32:33;;;;;;;3.30;2.05;;;37.90;48.20;;;;;;5074891;28;20031;-85
2023/06/17 12:34:59;;;;;;;2.42;1.70;;;37.70;48.10;;;;;;5073956;28;20386;-86
2023/06/17 12:37:33;;;;;;;2.83;2.00;;;37.60;48.30;;;;;;5060404;28;20024;-86
2023/06/17 12:40:00;;;;;;;3.33;2.08;;;37.60;47.90;;;;;;5073835;28;20037;-86
2023/06/17 12:42:26;;;;;;;2.40;1.83;;;37.70;48.00;;;;;;5075438;28;20492;-85
2023/06/17 12:44:52;;;;;;;2.83;2.13;;;38.00;48.50;;;;;;5059131;28;20502;-85
2023/06/17 12:47:21;;;;;;;2.40;1.88;;;38.10;47.40;;;;;;5075135;28;20021;-86